Axel, Colorado
Current Conditions -  °F | °C
As of 9:53 PM on Wednesday 22 Oct 2014 (Local Time) from KEEO Reporting Station
Clear Clear  
Wind Chill: 42°   Ceiling: Unl
Heat Index: 42°   Visibility: 10mi
Dew Point: 36°   Wind: 3mph
Humidity: 79%   Direction: 40°NE
Pressure: 30.25"   Gusts: NA
Location:  40.0347°N, 107.628°W
Report Text: KEEO 230353Z AUTO 04003KT 10SM CLR 06/02 A3025 RMK AO2 SLP214 T00560022
Loading
Personal Weather Stations






























Interactive Weather Map
Tropical Storm Tracking
New forecast layout! Learn more

10-Day Weather Forecast

Advertisements
Track Severe Weather on mobile